Time;durP1;ratioP1;P1;durP2;ratioP2;P2;SDS_P1;SDS_P2;PMS_P1;PMS_P2;Temp;Humidity;BMP_temperature;BMP_pressure;BME280_temperature;BME280_humidity;BME280_pressure;Samples;Min_cycle;Max_cycle;Signal;HPM_P1;HPM_P2
2023/03/16 08:23:10;;;;;;;;;;;8.00;99.90;;;;;;5057228;28;19925;-81
2023/03/16 08:25:36;;;;;;;;;;;8.00;99.90;;;;;;5058324;28;19913;-81
2023/03/16 08:28:01;;;;;;;;;;;8.00;99.90;;;;;;5040271;28;20511;-81
2023/03/16 08:30:27;;;;;;;;;;;8.00;99.90;;;;;;5058243;28;19915;-81
2023/03/16 08:32:52;;;;;;;;;;;8.10;99.90;;;;;;5057091;28;19924;-81
2023/03/16 08:35:18;;;;;;;;;;;8.20;99.90;;;;;;5058701;28;20011;-80
2023/03/16 08:37:45;;;;;;;;;;;8.30;99.90;;;;;;5040149;28;19917;-81
2023/03/16 08:40:15;;;;;;;;;;;8.40;99.90;;;;;;5057368;28;19916;-80
2023/03/16 08:42:41;;;;;;;;;;;8.40;99.90;;;;;;5057560;28;19909;-81
2023/03/16 08:45:13;;;;;;;;;;;8.40;99.90;;;;;;5055553;28;19999;-80
2023/03/16 08:47:42;;;;;;;;;;;8.40;99.90;;;;;;5058101;28;19909;-81
2023/03/16 08:50:23;;;;;;;;;;;8.40;99.90;;;;;;5057581;28;19916;-81
2023/03/16 08:52:57;;;;;;;;;;;8.50;99.90;;;;;;5037067;28;19909;-80
2023/03/16 08:55:46;;;;;;;;;;;8.40;99.90;;;;;;5038685;28;20023;-81
2023/03/16 08:58:12;;;;;;;;;;;8.60;99.90;;;;;;5039793;28;19920;-81
2023/03/16 09:00:38;;;;;;;;;;;8.60;99.90;;;;;;5038944;28;20335;-81
2023/03/16 09:03:05;;;;;;;;;;;8.80;99.90;;;;;;5039227;28;19916;-81
2023/03/16 09:05:31;;;;;;;;;;;9.00;99.90;;;;;;5038505;28;19909;-81
2023/03/16 09:07:57;;;;;;;;;;;9.10;99.90;;;;;;5057669;28;19909;-81
2023/03/16 09:10:24;;;;;;;;;;;9.20;99.90;;;;;;5038593;28;19917;-80
2023/03/16 09:13:08;;;;;;;;;;;9.20;99.90;;;;;;5038501;28;19916;-81
2023/03/16 09:16:16;;;;;;;;;;;9.30;99.90;;;;;;5057240;28;20280;-80
2023/03/16 09:18:42;;;;;;;;;;;9.50;99.90;;;;;;5052131;28;19948;-81
2023/03/16 09:21:40;;;;;;;;;;;;;;;;;;;;;
2023/03/16 09:24:09;;;;;;;;;;;9.70;99.90;;;;;;5056624;28;19923;-82
2023/03/16 09:26:40;;;;;;;;;;;9.80;99.90;;;;;;5056673;28;19915;-78
2023/03/16 09:29:05;;;;;;;;;;;10.00;99.90;;;;;;5038824;28;19913;-81
2023/03/16 09:31:49;;;;;;;;;;;10.30;99.90;;;;;;5037556;28;19908;-79
2023/03/16 09:34:15;;;;;;;;;;;10.80;99.90;;;;;;5055959;28;19909;-79
2023/03/16 09:36:43;;;;;;;;;;;11.00;99.90;;;;;;5038135;28;19909;-79
2023/03/16 09:39:10;;;;;;;;;;;11.20;99.90;;;;;;5056282;28;19916;-78
2023/03/16 09:42:03;;;;;;;;;;;11.60;99.90;;;;;;5055365;28;19913;-78
2023/03/16 09:44:55;;;;;;;;;;;11.90;99.90;;;;;;5053808;28;19909;-80
2023/03/16 09:47:30;;;;;;;;;;;11.90;99.90;;;;;;5055525;28;20299;-79
2023/03/16 09:49:57;;;;;;;;;;;12.00;99.90;;;;;;5055875;28;20326;-79
2023/03/16 09:52:35;;;;;;;;;;;12.10;99.90;;;;;;5055047;28;19936;-79
2023/03/16 09:57:51;;;;;;;;;;;11.60;99.90;;;;;;5056460;28;19924;-78
2023/03/16 10:00:26;;;;;;;;;;;11.20;99.90;;;;;;5055919;28;19909;-80
2023/03/16 10:03:01;;;;;;;;;;;10.70;99.90;;;;;;5036487;28;19909;-81
2023/03/16 10:08:47;;;;;;;;;;;10.80;99.90;;;;;;5047954;28;19909;-80
2023/03/16 10:11:33;;;;;;;;;;;10.70;99.90;;;;;;5054156;28;19913;-81
2023/03/16 10:14:20;;;;;;;;;;;10.70;99.90;;;;;;5055751;28;19944;-80
2023/03/16 10:16:56;;;;;;;;;;;10.60;99.90;;;;;;5036915;28;19928;-80
2023/03/16 10:19:35;;;;;;;;;;;10.60;99.90;;;;;;5037243;28;19947;-82
2023/03/16 10:22:07;;;;;;;;;;;10.60;99.90;;;;;;5053587;28;19909;-82
2023/03/16 10:24:42;;;;;;;;;;;10.80;99.90;;;;;;5054463;28;19909;-79
2023/03/16 10:27:14;;;;;;;;;;;11.10;99.90;;;;;;5054602;28;19995;-81
2023/03/16 10:29:40;;;;;;;;;;;11.40;99.90;;;;;;5036835;28;19909;-80
2023/03/16 10:32:16;;;;;;;;;;;11.60;99.90;;;;;;5036197;28;19915;-80
2023/03/16 10:34:44;;;;;;;;;;;11.70;99.90;;;;;;5036081;28;20027;-79
2023/03/16 10:37:12;;;;;;;;;;;11.80;99.90;;;;;;5037390;28;19975;-81
2023/03/16 10:39:41;;;;;;;;;;;12.10;99.90;;;;;;5036494;28;19924;-79
2023/03/16 10:42:15;;;;;;;;;;;12.60;99.90;;;;;;5036528;28;19947;-80
2023/03/16 10:44:40;;;;;;;;;;;13.10;99.90;;;;;;5053642;28;19908;-81
2023/03/16 10:47:07;;;;;;;;;;;13.40;99.90;;;;;;5054285;28;19915;-82
2023/03/16 10:49:35;;;;;;;;;;;13.60;99.90;;;;;;5036815;28;19909;-79
2023/03/16 10:52:05;;;;;;;;;;;13.50;98.60;;;;;;5054057;28;19959;-80
2023/03/16 10:54:34;;;;;;;;;;;13.30;98.80;;;;;;5054341;28;19909;-79
2023/03/16 10:57:12;;;;;;;;;;;13.20;98.50;;;;;;5036351;28;20354;-83
2023/03/16 10:59:37;;;;;;;;;;;14.00;99.00;;;;;;5035665;28;19909;-82
2023/03/16 11:02:32;;;;;;;;;;;15.20;96.80;;;;;;5053482;28;19912;-84
2023/03/16 11:13:40;;;;;;;;;;;;;;;;;;;;;
2023/03/16 13:34:46;;;;;;;;;;;19.00;60.40;;;;;;5033545;28;19932;-83
2023/03/16 13:51:33;;;;;;;;;;;22.80;48.50;;;;;;5030988;28;19929;-83
2023/03/16 13:54:03;;;;;;;;;;;22.90;48.40;;;;;;5033715;28;19935;-83
2023/03/16 13:56:39;;;;;;;;;;;22.50;48.20;;;;;;5015992;28;19963;-83
2023/03/16 13:59:08;;;;;;;;;;;21.40;47.20;;;;;;5034103;28;19913;-83
2023/03/16 14:01:34;;;;;;;;;;;20.40;48.60;;;;;;5015060;28;19916;-83
2023/03/16 14:04:17;;;;;;;;;;;19.70;49.30;;;;;;5033691;28;19916;-83
2023/03/16 14:06:54;;;;;;;;;;;19.10;50.10;;;;;;5017224;28;19910;-83
2023/03/16 14:09:21;;;;;;;;;;;18.80;51.20;;;;;;5020316;28;20285;-82
2023/03/16 14:40:09;;;;;;;;;;;21.80;48.20;;;;;;5075526;28;19947;-83
2023/03/16 15:41:34;;;;;;;;;;;19.80;46.40;;;;;;5036613;28;19929;-81
2023/03/16 15:44:00;;;;;;;;;;;18.90;47.40;;;;;;5028357;28;20266;-82
2023/03/16 15:46:26;;;;;;;;;;;18.00;48.50;;;;;;5028519;28;19909;-81
2023/03/16 15:48:52;;;;;;;;;;;17.50;49.30;;;;;;5036904;28;19909;-82
2023/03/16 15:51:17;;;;;;;;;;;17.00;50.40;;;;;;5036266;28;19915;-81
2023/03/16 15:53:45;;;;;;;;;;;16.60;51.30;;;;;;5037062;28;19909;-82
2023/03/16 15:56:12;;;;;;;;;;;16.50;52.30;;;;;;5019674;28;20361;-80
2023/03/16 15:58:40;;;;;;;;;;;16.30;52.90;;;;;;5018702;28;20004;-81
2023/03/16 16:01:07;;;;;;;;;;;16.20;53.60;;;;;;5052643;28;19912;-81
2023/03/16 16:03:33;;;;;;;;;;;16.00;54.40;;;;;;5032529;28;20332;-80
2023/03/16 16:05:59;;;;;;;;;;;15.90;54.40;;;;;;5028516;28;19962;-81
2023/03/16 16:08:24;;;;;;;;;;;15.60;55.70;;;;;;5029323;28;20012;-81
2023/03/16 16:10:52;;;;;;;;;;;15.30;56.10;;;;;;5047812;28;19913;-81
2023/03/16 16:13:18;;;;;;;;;;;15.10;57.10;;;;;;5022942;28;19999;-82
2023/03/16 16:15:45;;;;;;;;;;;15.00;57.80;;;;;;5042280;22;19947;-81
2023/03/16 16:18:26;;;;;;;;;;;14.90;59.10;;;;;;5036977;28;19974;-80
2023/03/16 16:20:52;;;;;;;;;;;14.90;59.50;;;;;;5055176;28;19913;-82
2023/03/16 16:23:18;;;;;;;;;;;14.80;61.10;;;;;;5053980;28;19915;-81
2023/03/16 16:25:45;;;;;;;;;;;14.60;61.70;;;;;;5056234;28;19909;-80
2023/03/16 16:28:15;;;;;;;;;;;14.50;63.80;;;;;;5074832;28;19931;-81
2023/03/16 16:30:41;;;;;;;;;;;14.40;65.60;;;;;;5056224;28;19962;-80
2023/03/16 16:33:23;;;;;;;;;;;14.30;67.20;;;;;;5073625;28;20326;-81
2023/03/16 16:35:49;;;;;;;;;;;14.30;69.50;;;;;;5056450;28;19908;-83
2023/03/16 16:38:14;;;;;;;;;;;14.10;70.70;;;;;;5073560;28;19935;-83
2023/03/16 16:40:45;;;;;;;;;;;14.00;73.00;;;;;;5072772;28;20268;-82
2023/03/16 16:43:29;;;;;;;;;;;13.90;74.70;;;;;;5073528;28;19915;-82
2023/03/16 16:45:55;;;;;;;;;;;13.70;77.30;;;;;;5055905;28;19962;-82
2023/03/16 16:48:40;;;;;;;;;;;13.60;80.70;;;;;;5072597;28;19908;-82
2023/03/16 16:51:11;;;;;;;;;;;13.50;82.90;;;;;;5054622;28;19908;-83
2023/03/16 16:53:36;;;;;;;;;;;13.40;86.80;;;;;;5058197;28;20011;-82
2023/03/16 16:56:02;;;;;;;;;;;13.40;89.90;;;;;;5075553;28;19952;-82
2023/03/16 16:58:27;;;;;;;;;;;13.30;90.60;;;;;;5074120;28;20296;-82
2023/03/16 17:00:55;;;;;;;;;;;13.20;91.70;;;;;;5072902;28;19946;-82
2023/03/16 17:03:25;;;;;;;;;;;13.10;93.60;;;;;;5073492;28;20004;-83
2023/03/16 17:05:51;;;;;;;;;;;13.10;94.90;;;;;;5055531;28;20283;-82
2023/03/16 17:08:17;;;;;;;;;;;13.00;95.50;;;;;;5073136;28;19915;-82
2023/03/16 17:10:43;;;;;;;;;;;12.90;96.50;;;;;;5072423;28;19915;-82
2023/03/16 17:13:18;;;;;;;;;;;12.80;97.80;;;;;;5055474;28;20003;-82
2023/03/16 17:15:44;;;;;;;;;;;12.70;98.80;;;;;;5055143;28;19923;-82
2023/03/16 17:18:12;;;;;;;;;;;12.60;99.90;;;;;;5073422;28;20295;-82
2023/03/16 17:20:37;;;;;;;;;;;12.50;99.90;;;;;;5073633;28;19908;-82
2023/03/16 17:23:13;;;;;;;;;;;12.40;99.90;;;;;;5073490;28;19963;-82
2023/03/16 17:25:39;;;;;;;;;;;12.40;99.90;;;;;;5073819;28;20389;-83
2023/03/16 17:28:04;;;;;;;;;;;12.30;99.90;;;;;;5073676;28;19916;-83
2023/03/16 17:30:31;;;;;;;;;;;12.20;99.90;;;;;;5071779;28;20005;-82
2023/03/16 17:33:06;;;;;;;;;;;12.20;99.90;;;;;;5073104;28;19912;-83
2023/03/16 17:35:31;;;;;;;;;;;12.10;99.90;;;;;;5073439;28;19913;-82
2023/03/16 17:37:57;;;;;;;;;;;12.10;99.90;;;;;;5055518;28;19920;-83
2023/03/16 17:40:26;;;;;;;;;;;12.00;99.90;;;;;;5073790;28;19913;-82
2023/03/16 17:42:52;;;;;;;;;;;12.00;99.90;;;;;;5054750;28;19919;-81
2023/03/16 17:45:19;;;;;;;;;;;11.90;99.90;;;;;;5073263;28;19954;-82
2023/03/16 17:47:45;;;;;;;;;;;11.80;99.90;;;;;;5055571;28;20264;-83
2023/03/16 17:50:15;;;;;;;;;;;11.80;99.90;;;;;;5074688;28;19913;-83
2023/03/16 17:52:41;;;;;;;;;;;11.80;99.90;;;;;;5073900;28;19920;-82
2023/03/16 17:55:07;;;;;;;;;;;11.70;99.90;;;;;;5073164;28;19908;-82
2023/03/16 17:57:32;;;;;;;;;;;11.70;99.90;;;;;;5073238;28;19955;-82
2023/03/16 17:59:59;;;;;;;;;;;11.60;99.90;;;;;;5072331;28;19970;-82
2023/03/16 18:02:36;;;;;;;;;;;11.60;99.90;;;;;;5071860;28;19991;-82
2023/03/16 18:05:04;;;;;;;;;;;11.60;99.90;;;;;;5073062;28;19912;-82
2023/03/16 18:07:30;;;;;;;;;;;11.50;99.90;;;;;;5071641;28;19908;-82
2023/03/16 18:09:55;;;;;;;;;;;11.50;99.90;;;;;;5073113;28;20013;-83
2023/03/16 18:12:21;;;;;;;;;;;11.50;99.90;;;;;;5072144;28;19939;-82
2023/03/16 18:14:46;;;;;;;;;;;11.40;99.90;;;;;;5073133;28;20011;-82
2023/03/16 18:17:15;;;;;;;;;;;11.40;99.90;;;;;;5072504;28;19917;-82
2023/03/16 18:19:42;;;;;;;;;;;11.40;99.90;;;;;;5073250;28;20028;-82
2023/03/16 18:22:14;;;;;;;;;;;11.40;99.90;;;;;;5072399;28;20369;-81
2023/03/16 18:24:41;;;;;;;;;;;11.40;99.90;;;;;;5072647;28;19913;-82
2023/03/16 18:27:08;;;;;;;;;;;11.30;99.90;;;;;;5071167;28;20023;-82
2023/03/16 18:29:34;;;;;;;;;;;11.30;99.90;;;;;;5072620;28;19916;-82
2023/03/16 18:32:00;;;;;;;;;;;11.30;99.90;;;;;;5071841;28;20355;-82
2023/03/16 18:34:27;;;;;;;;;;;11.30;99.90;;;;;;5072517;28;19993;-81
2023/03/16 18:36:54;;;;;;;;;;;11.20;99.90;;;;;;5072138;28;19909;-82
2023/03/16 18:39:20;;;;;;;;;;;11.20;99.90;;;;;;5072268;28;20283;-82
2023/03/16 18:41:46;;;;;;;;;;;11.20;99.90;;;;;;5072072;28;20367;-83
2023/03/16 18:44:19;;;;;;;;;;;11.20;99.90;;;;;;5054327;28;20380;-83
2023/03/16 18:46:45;;;;;;;;;;;11.20;99.90;;;;;;5054604;28;20334;-82
2023/03/16 18:49:19;;;;;;;;;;;11.20;99.90;;;;;;5072715;28;19916;-82
2023/03/16 18:51:47;;;;;;;;;;;11.20;99.90;;;;;;5053851;28;19932;-82
2023/03/16 18:54:27;;;;;;;;;;;11.10;99.90;;;;;;5073131;28;19916;-83
2023/03/16 18:56:52;;;;;;;;;;;11.10;99.90;;;;;;5054656;28;20277;-83
2023/03/16 18:59:18;;;;;;;;;;;11.10;99.90;;;;;;5072471;28;19919;-82
2023/03/16 19:01:44;;;;;;;;;;;11.00;99.90;;;;;;5071622;28;19912;-82
2023/03/16 19:04:20;;;;;;;;;;;11.00;99.90;;;;;;5054218;28;19912;-82
2023/03/16 19:06:46;;;;;;;;;;;11.00;99.90;;;;;;5072250;28;19909;-82
2023/03/16 19:09:19;;;;;;;;;;;10.90;99.90;;;;;;5074018;28;19999;-83
2023/03/16 19:11:45;;;;;;;;;;;10.90;99.90;;;;;;5073173;28;19915;-84
2023/03/16 19:14:16;;;;;;;;;;;10.90;99.90;;;;;;5072658;28;19912;-83
2023/03/16 19:16:42;;;;;;;;;;;10.90;99.90;;;;;;5054253;28;19920;-82
2023/03/16 19:19:08;;;;;;;;;;;10.80;99.90;;;;;;5072258;28;19963;-82
2023/03/16 19:21:33;;;;;;;;;;;10.80;99.90;;;;;;5070924;28;19909;-83
2023/03/16 19:24:01;;;;;;;;;;;10.80;99.90;;;;;;5072363;28;19952;-82
2023/03/16 19:26:26;;;;;;;;;;;10.80;99.90;;;;;;5054146;28;20284;-82
2023/03/16 19:28:52;;;;;;;;;;;10.80;99.90;;;;;;5072303;28;19915;-81
2023/03/16 19:31:22;;;;;;;;;;;10.80;99.90;;;;;;5071457;28;20412;-82
2023/03/16 19:33:48;;;;;;;;;;;10.70;99.90;;;;;;5074392;28;19915;-80
2023/03/16 19:36:20;;;;;;;;;;;10.70;99.90;;;;;;5076259;28;20370;-82
2023/03/16 19:38:49;;;;;;;;;;;10.70;99.90;;;;;;5075691;28;19913;-80
2023/03/16 19:41:34;;;;;;;;;;;10.70;99.90;;;;;;5074914;28;20008;-82
2023/03/16 19:44:11;;;;;;;;;;;10.60;99.90;;;;;;5075494;28;19908;-79
2023/03/16 19:46:37;;;;;;;;;;;10.60;99.90;;;;;;5057402;28;19913;-79
2023/03/16 19:49:02;;;;;;;;;;;10.60;99.90;;;;;;5073958;28;19979;-80
2023/03/16 19:51:30;;;;;;;;;;;10.60;99.90;;;;;;5074459;28;19916;-80
2023/03/16 19:53:55;;;;;;;;;;;10.60;99.90;;;;;;5076543;28;19908;-81
2023/03/16 19:56:21;;;;;;;;;;;10.60;99.90;;;;;;5076258;28;20465;-80
2023/03/16 19:58:48;;;;;;;;;;;10.50;99.90;;;;;;5075757;28;19916;-80
2023/03/16 20:01:16;;;;;;;;;;;10.60;99.90;;;;;;5056474;28;20011;-80
2023/03/16 20:03:42;;;;;;;;;;;10.50;99.90;;;;;;5075195;28;19908;-81
2023/03/16 20:06:10;;;;;;;;;;;10.50;99.90;;;;;;5075074;28;20367;-81
2023/03/16 20:08:35;;;;;;;;;;;10.50;99.90;;;;;;5075069;28;19962;-81
2023/03/16 20:11:02;;;;;;;;;;;10.40;99.90;;;;;;5074324;28;19912;-80
2023/03/16 20:13:30;;;;;;;;;;;10.40;99.90;;;;;;5075252;28;19908;-81
2023/03/16 20:15:56;;;;;;;;;;;10.40;99.90;;;;;;5075813;28;19985;-81
2023/03/16 20:18:22;;;;;;;;;;;10.40;99.90;;;;;;5075560;28;19959;-81
2023/03/16 20:20:47;;;;;;;;;;;10.40;99.90;;;;;;5074996;28;19909;-80
2023/03/16 20:23:21;;;;;;;;;;;10.30;99.90;;;;;;5052634;28;19909;-82
2023/03/16 20:25:47;;;;;;;;;;;10.30;99.90;;;;;;5037402;28;19913;-83
2023/03/16 20:28:17;;;;;;;;;;;10.30;99.90;;;;;;5055169;28;20055;-82
2023/03/16 20:30:43;;;;;;;;;;;10.30;99.90;;;;;;5055021;28;19909;-82
2023/03/16 20:33:29;;;;;;;;;;;10.30;99.90;;;;;;5054580;28;20268;-83
2023/03/16 20:35:55;;;;;;;;;;;10.20;99.90;;;;;;5054805;28;19909;-83
2023/03/16 20:38:21;;;;;;;;;;;10.20;99.90;;;;;;5055102;28;20373;-82
2023/03/16 20:40:47;;;;;;;;;;;10.20;99.90;;;;;;5037438;28;19909;-83
2023/03/16 20:43:16;;;;;;;;;;;10.20;99.90;;;;;;5054772;28;19916;-83
2023/03/16 20:45:42;;;;;;;;;;;10.20;99.90;;;;;;5053640;28;19935;-82
2023/03/16 20:48:13;;;;;;;;;;;10.20;99.90;;;;;;5055028;28;19913;-84
2023/03/16 20:50:38;;;;;;;;;;;10.20;99.90;;;;;;5055215;28;19910;-82
2023/03/16 20:53:04;;;;;;;;;;;10.20;99.90;;;;;;5053294;28;20367;-83
2023/03/16 20:55:29;;;;;;;;;;;10.10;99.90;;;;;;5054784;28;20004;-82
2023/03/16 20:57:56;;;;;;;;;;;10.20;99.90;;;;;;5054771;28;19962;-83
2023/03/16 21:00:25;;;;;;;;;;;10.20;99.90;;;;;;5054789;28;19948;-82
2023/03/16 21:02:51;;;;;;;;;;;10.20;99.90;;;;;;5053118;28;19967;-83
2023/03/16 21:05:16;;;;;;;;;;;10.20;99.90;;;;;;5037364;28;19909;-84
2023/03/16 21:07:44;;;;;;;;;;;10.20;99.90;;;;;;5054373;28;20279;-83
2023/03/16 21:10:13;;;;;;;;;;;10.20;99.90;;;;;;5036622;28;19979;-82
2023/03/16 21:12:41;;;;;;;;;;;10.20;99.90;;;;;;5054817;28;19909;-84
2023/03/16 21:15:13;;;;;;;;;;;10.10;99.90;;;;;;5042292;28;19908;-84
2023/03/16 21:17:39;;;;;;;;;;;10.10;99.90;;;;;;5057630;28;19913;-82
2023/03/16 21:20:13;;;;;;;;;;;10.10;99.90;;;;;;5036742;28;19909;-82
2023/03/16 21:22:38;;;;;;;;;;;10.10;99.90;;;;;;5054446;28;19913;-83
2023/03/16 21:25:04;;;;;;;;;;;10.10;99.90;;;;;;5054264;28;19908;-82
2023/03/16 21:27:30;;;;;;;;;;;10.10;99.90;;;;;;5054459;28;19920;-82
2023/03/16 21:29:58;;;;;;;;;;;10.10;99.90;;;;;;5054336;28;19908;-82
2023/03/16 21:32:25;;;;;;;;;;;10.10;99.90;;;;;;5053884;28;20007;-83
2023/03/16 21:34:50;;;;;;;;;;;10.10;99.90;;;;;;5054176;28;20434;-84
2023/03/16 21:37:17;;;;;;;;;;;10.00;99.90;;;;;;5054099;28;19916;-82
2023/03/16 21:39:43;;;;;;;;;;;10.10;99.90;;;;;;5036113;28;19909;-83
2023/03/16 21:42:09;;;;;;;;;;;10.00;99.90;;;;;;5053778;28;19962;-84
2023/03/16 21:44:36;;;;;;;;;;;10.10;99.90;;;;;;5054004;28;19916;-83
2023/03/16 21:47:02;;;;;;;;;;;10.10;99.90;;;;;;5052327;28;19916;-83
2023/03/16 21:49:28;;;;;;;;;;;10.10;99.90;;;;;;5035788;28;20384;-83
2023/03/16 21:51:53;;;;;;;;;;;10.10;99.90;;;;;;5053590;28;20046;-84
2023/03/16 21:54:19;;;;;;;;;;;10.00;99.90;;;;;;5035918;28;19914;-83
2023/03/16 21:56:44;;;;;;;;;;;10.00;99.90;;;;;;5052232;28;19909;-82
2023/03/16 21:59:10;;;;;;;;;;;10.00;99.90;;;;;;5053546;28;20003;-81
2023/03/16 22:01:36;;;;;;;;;;;10.00;99.90;;;;;;5053229;28;19916;-82
2023/03/16 22:04:04;;;;;;;;;;;10.00;99.90;;;;;;5053372;28;19913;-82
2023/03/16 22:06:30;;;;;;;;;;;10.00;99.90;;;;;;5035605;28;20451;-82
2023/03/16 22:08:56;;;;;;;;;;;10.00;99.90;;;;;;5053357;28;19959;-82
2023/03/16 22:11:23;;;;;;;;;;;10.00;99.90;;;;;;5051928;28;19947;-83
2023/03/16 22:13:49;;;;;;;;;;;10.00;99.90;;;;;;5053632;28;19962;-83
2023/03/16 22:52:24;;;;;;;;;;;10.20;99.90;;;;;;5072697;28;19928;-82
2023/03/16 22:54:49;;;;;;;;;;;10.20;99.90;;;;;;5056269;28;19947;-84
2023/03/16 22:57:15;;;;;;;;;;;10.20;99.90;;;;;;5074668;28;20299;-85
2023/03/16 22:59:42;;;;;;;;;;;10.20;99.90;;;;;;5072894;28;19908;-84
2023/03/16 23:02:14;;;;;;;;;;;10.20;99.90;;;;;;5074208;28;19909;-84
2023/03/16 23:04:40;;;;;;;;;;;10.30;99.90;;;;;;5074673;28;19963;-84
2023/03/16 23:07:12;;;;;;;;;;;10.20;99.90;;;;;;5055894;28;19908;-85
2023/03/16 23:09:38;;;;;;;;;;;10.20;99.90;;;;;;5077874;28;19999;-84
2023/03/16 23:12:08;;;;;;;;;;;10.20;99.90;;;;;;5077921;28;20324;-84
2023/03/16 23:14:34;;;;;;;;;;;10.20;99.90;;;;;;5079801;28;19908;-85
2023/03/16 23:16:59;;;;;;;;;;;10.20;99.90;;;;;;5080203;28;20001;-84
2023/03/16 23:19:25;;;;;;;;;;;10.20;99.90;;;;;;5061182;28;19912;-84
2023/03/16 23:21:52;;;;;;;;;;;10.20;99.90;;;;;;5078155;28;19914;-83
2023/03/16 23:24:17;;;;;;;;;;;10.20;99.90;;;;;;5060199;28;19908;-84
2023/03/16 23:26:43;;;;;;;;;;;10.20;99.90;;;;;;5077847;28;19909;-85
2023/03/16 23:29:09;;;;;;;;;;;10.20;99.90;;;;;;5078525;28;19927;-83
2023/03/16 23:31:35;;;;;;;;;;;10.20;99.90;;;;;;5077890;28;19947;-85
2023/03/16 23:34:07;;;;;;;;;;;10.20;99.90;;;;;;5078374;28;20264;-84
2023/03/16 23:36:32;;;;;;;;;;;10.20;99.90;;;;;;5060327;28;20001;-85
2023/03/16 23:38:58;;;;;;;;;;;10.10;99.90;;;;;;5059490;28;19908;-85
2023/03/16 23:41:23;;;;;;;;;;;10.20;99.90;;;;;;5059607;28;19908;-83
2023/03/16 23:43:49;;;;;;;;;;;10.20;99.90;;;;;;5078063;28;19916;-83
2023/03/16 23:46:19;;;;;;;;;;;10.20;99.90;;;;;;5060070;28;19909;-83
2023/03/16 23:48:46;;;;;;;;;;;10.20;99.90;;;;;;5078011;28;19966;-84
2023/03/16 23:51:23;;;;;;;;;;;10.20;99.90;;;;;;5075320;28;19916;-83
2023/03/16 23:53:49;;;;;;;;;;;10.20;99.90;;;;;;5059485;28;19954;-85
2023/03/16 23:56:15;;;;;;;;;;;10.10;99.90;;;;;;5077354;28;19908;-83
2023/03/16 23:58:40;;;;;;;;;;;10.10;99.90;;;;;;5078143;28;20307;-84
